Time;durP1;ratioP1;P1;durP2;ratioP2;P2;SDS_P1;SDS_P2;PMS_P1;PMS_P2;Temp;Humidity;BMP_temperature;BMP_pressure;BME280_temperature;BME280_humidity;BME280_pressure;Samples;Min_cycle;Max_cycle;Signal;HPM_P1;HPM_P2
2022/03/01 00:01:03;;;;;;;21.98;12.38;;;1.20;99.90;;;;;;5062589;28;20048;-69
2022/03/01 00:03:29;;;;;;;18.70;11.77;;;1.20;99.90;;;;;;5047667;28;20095;-69
2022/03/01 00:05:54;;;;;;;17.50;11.95;;;1.20;99.90;;;;;;5038194;28;20060;-69
2022/03/01 00:08:20;;;;;;;17.67;11.90;;;1.20;99.90;;;;;;5037798;28;20110;-68
2022/03/01 00:10:45;;;;;;;20.17;12.27;;;1.10;99.90;;;;;;5074264;28;20070;-68
2022/03/01 00:13:11;;;;;;;16.83;11.55;;;1.10;99.90;;;;;;5058231;28;20067;-72
2022/03/01 00:15:37;;;;;;;17.58;11.90;;;1.10;99.90;;;;;;5075675;28;20044;-69
2022/03/01 00:18:03;;;;;;;18.67;11.80;;;1.10;99.90;;;;;;5075652;28;20106;-68
2022/03/01 00:20:28;;;;;;;16.90;11.65;;;1.20;99.90;;;;;;5075688;28;20465;-69
2022/03/01 00:22:54;;;;;;;19.33;12.30;;;1.10;99.90;;;;;;5057700;28;20044;-69
2022/03/01 00:25:19;;;;;;;17.92;12.15;;;1.10;99.90;;;;;;5074926;28;20047;-69
2022/03/01 00:27:45;;;;;;;17.67;11.88;;;1.00;99.90;;;;;;5064769;28;20460;-69
2022/03/01 00:30:11;;;;;;;17.80;11.68;;;1.00;99.90;;;;;;5075299;28;20052;-69
2022/03/01 00:32:37;;;;;;;18.13;12.13;;;1.00;99.90;;;;;;5075219;28;20084;-71
2022/03/01 00:35:03;;;;;;;17.13;11.00;;;1.00;99.90;;;;;;5057804;28;20401;-69
2022/03/01 00:37:28;;;;;;;17.77;11.38;;;0.90;99.90;;;;;;5074918;28;20045;-69
2022/03/01 00:39:54;;;;;;;18.02;11.82;;;0.90;99.90;;;;;;5074579;28;20063;-68
2022/03/01 00:42:19;;;;;;;20.23;12.57;;;1.00;99.90;;;;;;5057725;28;20040;-68
2022/03/01 00:44:45;;;;;;;18.17;11.73;;;0.90;99.90;;;;;;5074896;28;20046;-70
2022/03/01 00:47:10;;;;;;;17.17;11.63;;;0.90;99.90;;;;;;5075183;28;20047;-70
2022/03/01 00:49:36;;;;;;;17.52;11.20;;;0.80;99.90;;;;;;5057445;28;20143;-71
2022/03/01 00:52:02;;;;;;;18.45;12.07;;;0.90;99.90;;;;;;5074648;28;20060;-69
2022/03/01 00:54:27;;;;;;;20.20;11.50;;;0.90;99.90;;;;;;5075039;28;20041;-69
2022/03/01 00:56:53;;;;;;;18.55;12.20;;;0.90;99.90;;;;;;5063080;28;20354;-69
2022/03/01 00:59:18;;;;;;;18.65;11.80;;;0.90;99.90;;;;;;5037024;28;20072;-71
2022/03/01 01:01:44;;;;;;;16.58;11.43;;;0.90;99.90;;;;;;5055211;28;20377;-72
2022/03/01 01:04:10;;;;;;;16.92;11.57;;;0.90;99.90;;;;;;5037240;28;20099;-69
2022/03/01 01:06:35;;;;;;;18.13;11.88;;;0.90;99.90;;;;;;5054618;28;20469;-69
2022/03/01 01:09:01;;;;;;;19.42;12.10;;;1.00;99.90;;;;;;5059000;28;20447;-68
2022/03/01 01:11:26;;;;;;;18.08;11.80;;;1.00;99.90;;;;;;5074993;28;20040;-69
2022/03/01 01:13:52;;;;;;;18.55;11.48;;;1.10;99.90;;;;;;5057151;28;20086;-69
2022/03/01 01:16:18;;;;;;;18.73;11.07;;;1.10;99.90;;;;;;5074763;28;20048;-69
2022/03/01 01:18:43;;;;;;;21.83;12.57;;;1.10;99.90;;;;;;5056585;28;20044;-70
2022/03/01 01:21:13;;;;;;;16.27;11.18;;;1.10;99.90;;;;;;5057201;28;20105;-68
2022/03/01 01:23:41;;;;;;;20.35;11.70;;;1.10;99.90;;;;;;5074533;28;20049;-70
2022/03/01 01:26:07;;;;;;;19.65;11.43;;;1.10;99.90;;;;;;5056988;28;20110;-70
2022/03/01 01:28:32;;;;;;;20.25;11.80;;;1.10;99.90;;;;;;5043115;28;20049;-69
2022/03/01 01:30:58;;;;;;;19.45;12.13;;;1.00;99.90;;;;;;5074558;28;20119;-71
2022/03/01 01:33:23;;;;;;;17.80;11.65;;;1.00;99.90;;;;;;5039030;28;20045;-68
2022/03/01 01:35:49;;;;;;;18.98;12.13;;;1.00;99.90;;;;;;5036799;28;20045;-70
2022/03/01 01:38:14;;;;;;;17.85;12.07;;;1.10;99.90;;;;;;5036802;28;20083;-70
2022/03/01 01:40:40;;;;;;;18.98;12.10;;;1.00;99.90;;;;;;5054958;28;20373;-68
2022/03/01 01:43:06;;;;;;;17.58;11.55;;;1.00;99.90;;;;;;5037127;28;20053;-71
2022/03/01 01:45:33;;;;;;;17.73;12.02;;;1.00;99.90;;;;;;5037142;28;20051;-69
2022/03/01 01:48:00;;;;;;;18.67;11.98;;;1.00;99.90;;;;;;5036751;28;20061;-68
2022/03/01 01:50:27;;;;;;;19.13;11.93;;;1.00;99.90;;;;;;5036655;28;20080;-69
2022/03/01 01:52:55;;;;;;;18.15;11.57;;;0.90;99.90;;;;;;5053819;28;20475;-70
2022/03/01 01:55:22;;;;;;;18.85;12.25;;;0.90;99.90;;;;;;5058672;28;20449;-71
2022/03/01 01:57:48;;;;;;;19.48;12.50;;;0.90;99.90;;;;;;5038090;28;20053;-70
2022/03/01 02:00:16;;;;;;;19.98;12.02;;;0.80;99.90;;;;;;5054623;28;20053;-69
2022/03/01 02:02:42;;;;;;;18.48;11.82;;;0.80;99.90;;;;;;5059030;28;20079;-68
2022/03/01 02:05:08;;;;;;;19.13;12.68;;;0.70;99.90;;;;;;5054144;28;20170;-69
2022/03/01 02:07:35;;;;;;;20.38;12.68;;;0.70;99.90;;;;;;5053636;28;20064;-69
2022/03/01 02:10:00;;;;;;;19.83;12.82;;;0.90;99.90;;;;;;5066541;28;20040;-68
2022/03/01 02:12:26;;;;;;;21.05;12.85;;;0.60;99.90;;;;;;5073691;28;20055;-68
2022/03/01 02:14:52;;;;;;;19.60;12.88;;;0.60;99.90;;;;;;5056851;28;20153;-70
2022/03/01 02:17:18;;;;;;;21.10;12.50;;;0.60;99.90;;;;;;5074247;28;20463;-69
2022/03/01 02:19:47;;;;;;;21.05;13.52;;;0.60;99.90;;;;;;5073772;28;20049;-69
2022/03/01 02:22:13;;;;;;;18.38;12.82;;;0.70;99.90;;;;;;5056595;28;20057;-69
2022/03/01 02:24:39;;;;;;;18.63;12.13;;;0.60;99.90;;;;;;5057036;28;20379;-68
2022/03/01 02:27:05;;;;;;;21.23;13.32;;;0.60;99.90;;;;;;5073303;28;20098;-70
2022/03/01 02:29:31;;;;;;;22.40;13.02;;;0.60;99.90;;;;;;5075411;28;20055;-69
2022/03/01 02:32:00;;;;;;;23.15;12.98;;;0.60;99.90;;;;;;5060219;28;20063;-69
2022/03/01 02:34:26;;;;;;;20.25;12.52;;;0.70;99.90;;;;;;5077342;28;20140;-69
2022/03/01 02:36:52;;;;;;;20.30;12.75;;;0.70;99.90;;;;;;5077655;28;20131;-70
2022/03/01 02:39:17;;;;;;;20.67;12.32;;;0.70;99.90;;;;;;5059806;28;20063;-70
2022/03/01 02:41:45;;;;;;;20.08;13.38;;;0.70;99.90;;;;;;5059947;28;20127;-70
2022/03/01 02:44:11;;;;;;;18.95;12.75;;;0.60;99.90;;;;;;5025824;28;20358;-68
2022/03/01 02:46:37;;;;;;;19.30;12.50;;;0.70;99.90;;;;;;5077280;28;20049;-68
2022/03/01 02:49:04;;;;;;;22.88;12.77;;;0.60;99.90;;;;;;5076862;28;20087;-70
2022/03/01 02:51:30;;;;;;;20.42;13.05;;;0.60;99.90;;;;;;5025659;28;20049;-69
2022/03/01 02:53:56;;;;;;;21.17;12.55;;;0.60;99.90;;;;;;5077158;28;20127;-69
2022/03/01 02:56:22;;;;;;;21.08;13.98;;;0.50;99.90;;;;;;5070218;28;20048;-69
2022/03/01 02:58:47;;;;;;;19.70;13.07;;;0.50;99.90;;;;;;5049398;28;20101;-68
2022/03/01 03:01:13;;;;;;;19.50;12.93;;;0.50;99.90;;;;;;5057425;28;20408;-69
2022/03/01 03:03:39;;;;;;;20.10;12.52;;;0.50;99.90;;;;;;5056923;28;20484;-70
2022/03/01 03:06:04;;;;;;;22.95;14.18;;;0.50;99.90;;;;;;5056972;28;20079;-70
2022/03/01 03:08:30;;;;;;;21.30;13.30;;;0.50;99.90;;;;;;5056880;28;20529;-68
2022/03/01 03:10:56;;;;;;;22.40;13.55;;;0.50;99.90;;;;;;5063402;28;20396;-69
2022/03/01 03:13:21;;;;;;;19.90;12.93;;;0.50;99.90;;;;;;5059513;28;20102;-70
2022/03/01 03:15:47;;;;;;;17.83;12.68;;;0.50;99.90;;;;;;5042651;28;20060;-70
2022/03/01 03:18:17;;;;;;;21.05;13.80;;;0.40;99.90;;;;;;5076544;28;20433;-70
2022/03/01 03:20:42;;;;;;;22.88;13.40;;;0.50;99.90;;;;;;5077092;28;20056;-70
2022/03/01 03:23:08;;;;;;;23.00;13.48;;;0.40;99.90;;;;;;5058934;28;20032;-69
2022/03/01 03:25:34;;;;;;;20.70;13.95;;;0.40;99.90;;;;;;5070079;28;20071;-70
2022/03/01 03:27:59;;;;;;;22.30;13.52;;;0.50;99.90;;;;;;5056846;28;20036;-70
2022/03/01 03:30:26;;;;;;;21.05;13.82;;;0.40;99.90;;;;;;5039037;28;20094;-69
2022/03/01 03:32:52;;;;;;;22.95;14.70;;;0.40;99.90;;;;;;5056290;28;20472;-69
2022/03/01 03:35:18;;;;;;;23.45;14.90;;;0.40;99.90;;;;;;5056414;28;20044;-71
2022/03/01 03:37:43;;;;;;;23.75;14.27;;;0.40;99.90;;;;;;5056342;28;20338;-69
2022/03/01 03:40:09;;;;;;;25.10;14.75;;;0.40;99.90;;;;;;5038611;28;20079;-70
2022/03/01 03:42:36;;;;;;;22.45;14.20;;;0.40;99.90;;;;;;5052710;28;20053;-68
2022/03/01 03:45:02;;;;;;;22.40;14.52;;;0.50;99.90;;;;;;5056302;28;20405;-71
2022/03/01 03:47:28;;;;;;;22.17;14.93;;;0.50;99.90;;;;;;5055948;28;20096;-68
2022/03/01 03:49:54;;;;;;;23.60;14.80;;;0.50;99.90;;;;;;5039434;28;20053;-70
2022/03/01 03:52:19;;;;;;;24.02;14.25;;;0.60;99.90;;;;;;5038773;28;20055;-70
2022/03/01 03:54:45;;;;;;;26.75;14.85;;;0.60;99.90;;;;;;5059148;28;20068;-70
2022/03/01 03:57:10;;;;;;;28.80;13.88;;;0.60;99.90;;;;;;5049498;28;20044;-71
2022/03/01 03:59:37;;;;;;;21.10;14.18;;;0.60;99.90;;;;;;5061637;28;20091;-69
2022/03/01 04:02:04;;;;;;;20.80;13.50;;;0.70;99.90;;;;;;5075775;28;20412;-69
2022/03/01 04:04:29;;;;;;;19.77;13.70;;;0.80;99.90;;;;;;5075782;28;20048;-70
2022/03/01 04:06:55;;;;;;;22.85;13.70;;;1.40;99.90;;;;;;5075808;28;20041;-71
2022/03/01 04:09:20;;;;;;;22.52;13.70;;;0.90;99.90;;;;;;5075477;28;20044;-68
2022/03/01 04:11:46;;;;;;;23.67;14.65;;;1.30;99.90;;;;;;5075913;28;20083;-70
2022/03/01 04:14:12;;;;;;;21.88;14.07;;;1.10;99.90;;;;;;5068957;28;20052;-71
2022/03/01 04:16:42;;;;;;;22.20;13.77;;;1.00;99.90;;;;;;5037721;28;20056;-68
2022/03/01 04:19:10;;;;;;;20.92;13.68;;;1.20;99.90;;;;;;5038349;28;20122;-70
2022/03/01 04:21:37;;;;;;;22.13;14.10;;;1.10;99.90;;;;;;5055654;28;20051;-71
2022/03/01 04:24:03;;;;;;;23.40;14.15;;;1.10;99.90;;;;;;5038148;28;20049;-71
2022/03/01 04:26:29;;;;;;;21.30;14.32;;;1.10;99.90;;;;;;5071504;28;20436;-68
2022/03/01 04:28:55;;;;;;;22.25;13.55;;;1.10;99.90;;;;;;5055036;28;20072;-69
2022/03/01 04:31:22;;;;;;;20.95;13.35;;;1.10;99.90;;;;;;5054859;28;20124;-69
2022/03/01 04:33:48;;;;;;;20.83;14.05;;;1.10;99.90;;;;;;5038085;28;20150;-69
2022/03/01 04:36:14;;;;;;;21.98;14.13;;;1.10;99.90;;;;;;5050467;28;20080;-69
2022/03/01 04:38:40;;;;;;;25.75;14.30;;;1.10;99.90;;;;;;5075256;28;20048;-69
2022/03/01 04:41:06;;;;;;;23.67;14.57;;;1.00;99.90;;;;;;5057261;28;20129;-69
2022/03/01 04:43:32;;;;;;;22.40;14.52;;;1.00;99.90;;;;;;5041415;28;20377;-71
2022/03/01 04:45:57;;;;;;;24.17;13.93;;;1.00;99.90;;;;;;5074823;28;20051;-70
2022/03/01 04:48:23;;;;;;;23.27;13.77;;;1.00;99.90;;;;;;5075065;28;20123;-69
2022/03/01 04:50:50;;;;;;;23.55;14.73;;;1.00;99.90;;;;;;5075009;28;20044;-69
2022/03/01 04:53:16;;;;;;;21.52;14.10;;;1.00;99.90;;;;;;5055827;28;20079;-69
2022/03/01 04:55:41;;;;;;;22.33;14.40;;;1.00;99.90;;;;;;5072832;28;20473;-68
2022/03/01 04:58:07;;;;;;;22.85;14.30;;;1.00;99.90;;;;;;5056006;28;20132;-68
2022/03/01 05:00:32;;;;;;;24.85;14.00;;;1.60;99.90;;;;;;5055828;28;20044;-72
2022/03/01 05:02:58;;;;;;;22.25;14.65;;;1.00;99.90;;;;;;5037552;28;20041;-69
2022/03/01 05:05:24;;;;;;;24.75;13.90;;;1.10;99.90;;;;;;5055039;28;20067;-69
2022/03/01 05:07:49;;;;;;;23.85;14.23;;;1.10;99.90;;;;;;5054263;28;20123;-69
2022/03/01 05:10:20;;;;;;;23.85;15.10;;;1.10;99.90;;;;;;5054914;28;20053;-69
2022/03/01 05:12:54;;;;;;;25.00;14.57;;;1.10;99.90;;;;;;5037317;28;20040;-68
2022/03/01 05:15:22;;;;;;;28.60;14.55;;;1.10;99.90;;;;;;5051494;28;20056;-68
2022/03/01 05:17:49;;;;;;;22.52;14.70;;;1.10;99.90;;;;;;5075205;28;20044;-69
2022/03/01 05:20:16;;;;;;;24.27;14.32;;;1.20;99.90;;;;;;5074648;28;20101;-68
2022/03/01 05:22:42;;;;;;;21.88;14.55;;;1.20;99.90;;;;;;5074797;28;20444;-70
2022/03/01 05:25:10;;;;;;;24.35;15.10;;;1.20;99.90;;;;;;5074562;28;20384;-70
2022/03/01 05:27:37;;;;;;;22.42;14.48;;;1.30;99.90;;;;;;5057040;28;20044;-70
2022/03/01 05:30:04;;;;;;;24.65;14.90;;;1.30;99.90;;;;;;5057478;28;20049;-70
2022/03/01 05:32:36;;;;;;;21.17;14.02;;;1.30;99.90;;;;;;5056837;28;20049;-73
2022/03/01 05:35:03;;;;;;;23.55;13.73;;;1.30;99.90;;;;;;5074127;28;20040;-70
2022/03/01 05:37:29;;;;;;;22.40;15.43;;;1.40;99.90;;;;;;5074694;28;20072;-69
2022/03/01 05:39:55;;;;;;;19.80;13.02;;;1.40;99.90;;;;;;5074800;28;20157;-69
2022/03/01 05:42:20;;;;;;;19.25;13.70;;;1.90;99.90;;;;;;5074742;28;20063;-69
2022/03/01 05:44:46;;;;;;;25.27;14.45;;;1.40;99.90;;;;;;5074820;28;20445;-71
2022/03/01 05:47:12;;;;;;;22.58;14.20;;;1.40;99.90;;;;;;5073687;28;20041;-71
2022/03/01 05:49:38;;;;;;;25.15;14.02;;;1.50;99.90;;;;;;5057390;28;20077;-69
2022/03/01 05:52:04;;;;;;;23.73;14.70;;;1.40;99.90;;;;;;5056977;28;20052;-69
2022/03/01 05:54:30;;;;;;;20.10;14.27;;;1.50;99.90;;;;;;5056652;28;20052;-69
2022/03/01 05:56:55;;;;;;;24.45;15.10;;;1.40;99.90;;;;;;5056896;28;20464;-66
2022/03/01 05:59:21;;;;;;;20.63;14.70;;;2.00;99.90;;;;;;5056964;28;20443;-68
2022/03/01 06:01:46;;;;;;;24.48;15.32;;;1.40;99.90;;;;;;5056883;28;20041;-67
2022/03/01 06:04:12;;;;;;;21.05;14.45;;;1.40;99.90;;;;;;5058356;28;20055;-69
2022/03/01 06:06:38;;;;;;;22.67;14.75;;;1.40;99.90;;;;;;5061372;28;20037;-69
2022/03/01 06:09:03;;;;;;;22.67;14.85;;;1.30;99.90;;;;;;5078209;28;20055;-70
2022/03/01 06:11:29;;;;;;;21.20;14.32;;;1.30;99.90;;;;;;5078313;28;20438;-70
2022/03/01 06:13:54;;;;;;;20.60;14.30;;;1.30;99.90;;;;;;5078446;28;20041;-69
2022/03/01 06:16:20;;;;;;;20.58;14.18;;;1.30;99.90;;;;;;5077933;28;20064;-69
2022/03/01 06:18:45;;;;;;;23.40;13.95;;;1.30;99.90;;;;;;5060675;28;20056;-71
2022/03/01 06:21:11;;;;;;;22.40;13.95;;;1.30;99.90;;;;;;5060712;28;20403;-68
2022/03/01 06:23:36;;;;;;;22.40;14.00;;;1.30;99.90;;;;;;5059932;28;20098;-69
2022/03/01 06:26:02;;;;;;;22.85;14.73;;;1.30;99.90;;;;;;5059415;28;20075;-70
2022/03/01 06:28:28;;;;;;;21.02;13.88;;;1.40;99.90;;;;;;5057638;28;20059;-72
2022/03/01 06:30:53;;;;;;;22.50;14.52;;;1.40;99.90;;;;;;5075865;28;20044;-70
2022/03/01 06:33:19;;;;;;;22.13;14.30;;;1.40;99.90;;;;;;5070275;28;20049;-73
2022/03/01 06:35:46;;;;;;;23.17;14.68;;;1.40;99.90;;;;;;5070116;28;20075;-73
2022/03/01 06:38:11;;;;;;;23.05;15.50;;;1.40;99.90;;;;;;5056236;28;20049;-71
2022/03/01 06:40:37;;;;;;;20.95;13.43;;;1.40;99.90;;;;;;5070855;28;20570;-70
2022/03/01 06:43:03;;;;;;;21.83;14.43;;;1.50;99.90;;;;;;5059965;28;20128;-71
2022/03/01 06:45:29;;;;;;;24.15;14.52;;;1.50;99.90;;;;;;5057251;28;20041;-72
2022/03/01 06:47:55;;;;;;;21.27;15.00;;;1.50;99.90;;;;;;5077028;28;20063;-70
2022/03/01 06:50:21;;;;;;;21.30;14.02;;;1.60;99.90;;;;;;5077390;28;20141;-70
2022/03/01 06:52:46;;;;;;;21.38;14.38;;;1.60;99.90;;;;;;5075743;28;20049;-70
2022/03/01 06:55:13;;;;;;;20.98;14.40;;;1.60;99.90;;;;;;5073192;28;20063;-73
2022/03/01 06:57:40;;;;;;;22.27;14.80;;;1.70;99.90;;;;;;5076981;28;20047;-70
2022/03/01 07:00:07;;;;;;;22.20;14.57;;;1.70;99.90;;;;;;5076965;28;20044;-70
2022/03/01 07:02:38;;;;;;;21.85;13.98;;;1.80;99.90;;;;;;5073995;28;20372;-70
2022/03/01 07:05:05;;;;;;;23.38;14.65;;;1.80;99.90;;;;;;5073549;28;20052;-68
2022/03/01 07:07:31;;;;;;;26.35;14.70;;;1.90;99.90;;;;;;5052333;28;20045;-70
2022/03/01 07:09:56;;;;;;;22.38;13.63;;;1.90;99.90;;;;;;5048862;28;20106;-72
2022/03/01 07:12:22;;;;;;;21.65;14.35;;;2.00;99.90;;;;;;5073237;28;20083;-72
2022/03/01 07:14:48;;;;;;;20.02;14.02;;;2.10;99.90;;;;;;5076089;28;20049;-70
2022/03/01 07:17:16;;;;;;;23.65;14.98;;;2.20;99.90;;;;;;5075666;28;20052;-70
2022/03/01 07:19:42;;;;;;;21.67;14.85;;;2.20;99.90;;;;;;5059114;28;20053;-70
2022/03/01 07:22:07;;;;;;;23.75;14.82;;;2.30;99.90;;;;;;5058485;28;20506;-70
2022/03/01 07:24:33;;;;;;;21.35;14.30;;;2.40;99.90;;;;;;5063509;28;20059;-69
2022/03/01 07:26:58;;;;;;;23.55;14.77;;;2.50;99.90;;;;;;5039274;28;20053;-70
2022/03/01 07:29:24;;;;;;;22.85;14.98;;;2.60;99.90;;;;;;5062639;28;20048;-69
2022/03/01 07:31:49;;;;;;;23.05;15.05;;;2.60;99.90;;;;;;5057093;28;20044;-68
2022/03/01 07:34:15;;;;;;;28.30;16.88;;;2.70;99.90;;;;;;5071480;28;20080;-71
2022/03/01 07:36:41;;;;;;;22.80;14.05;;;2.80;99.90;;;;;;5073877;28;20048;-71
2022/03/01 07:39:06;;;;;;;24.52;15.75;;;2.90;99.90;;;;;;5075787;28;20123;-70
2022/03/01 07:41:32;;;;;;;21.98;14.63;;;3.00;99.90;;;;;;5057789;28;20098;-70
2022/03/01 07:43:58;;;;;;;20.20;14.55;;;3.10;99.90;;;;;;5076396;28;20045;-73
2022/03/01 07:46:24;;;;;;;23.05;15.25;;;3.20;99.90;;;;;;5075930;28;20059;-72
2022/03/01 07:48:49;;;;;;;22.00;14.32;;;3.30;99.90;;;;;;5058372;28;20052;-68
2022/03/01 07:51:15;;;;;;;22.63;15.40;;;3.30;99.90;;;;;;5075528;28;20365;-70
2022/03/01 07:53:41;;;;;;;23.77;14.80;;;3.60;99.90;;;;;;5058453;28;20073;-70
2022/03/01 07:56:06;;;;;;;24.38;15.52;;;3.50;99.90;;;;;;5058604;28;20419;-71
2022/03/01 07:58:33;;;;;;;23.38;14.95;;;3.50;99.90;;;;;;5068313;28;20060;-72
2022/03/01 08:00:58;;;;;;;23.70;15.15;;;3.60;99.90;;;;;;5056391;28;20477;-72
2022/03/01 08:03:24;;;;;;;24.85;15.23;;;3.60;99.90;;;;;;5073600;28;20049;-70
2022/03/01 08:05:50;;;;;;;21.52;15.63;;;3.60;99.90;;;;;;5075977;28;20047;-72
2022/03/01 08:08:15;;;;;;;24.20;15.73;;;3.70;99.90;;;;;;5058744;28;20048;-71
2022/03/01 08:10:41;;;;;;;22.50;15.32;;;3.70;99.90;;;;;;5043588;28;20053;-72
2022/03/01 08:13:07;;;;;;;24.65;16.13;;;3.80;99.90;;;;;;5038228;28;20453;-71
2022/03/01 08:15:33;;;;;;;21.23;13.75;;;3.80;99.90;;;;;;5055970;28;20123;-70
2022/03/01 08:17:59;;;;;;;24.55;16.20;;;3.90;99.90;;;;;;5055567;28;20359;-72
2022/03/01 08:20:25;;;;;;;21.85;15.23;;;3.90;99.90;;;;;;5055541;28;20059;-72
2022/03/01 08:22:52;;;;;;;24.23;15.18;;;4.00;99.90;;;;;;5037848;28;20521;-71
2022/03/01 08:25:18;;;;;;;25.52;15.80;;;4.00;99.90;;;;;;5073536;28;20052;-71
2022/03/01 08:27:45;;;;;;;23.05;15.90;;;4.10;99.90;;;;;;5055386;28;20052;-73
2022/03/01 08:30:11;;;;;;;23.50;15.70;;;4.10;99.90;;;;;;5074264;28;20045;-71
2022/03/01 08:32:37;;;;;;;25.17;15.00;;;4.20;99.90;;;;;;5072612;28;20076;-71
2022/03/01 08:35:04;;;;;;;23.75;15.65;;;4.20;99.90;;;;;;5074974;28;20425;-72
2022/03/01 08:37:29;;;;;;;24.77;16.25;;;4.30;99.90;;;;;;5067604;28;20492;-73
2022/03/01 08:39:55;;;;;;;22.00;15.63;;;4.40;99.90;;;;;;5055164;28;20056;-71
2022/03/01 08:42:20;;;;;;;22.13;15.60;;;4.40;99.90;;;;;;5054826;28;20087;-71
2022/03/01 08:44:47;;;;;;;22.10;15.57;;;4.50;99.90;;;;;;5037975;28;20049;-71
2022/03/01 08:47:13;;;;;;;23.50;15.73;;;4.50;99.90;;;;;;5037252;28;20071;-71
2022/03/01 08:49:38;;;;;;;22.92;14.68;;;4.60;99.90;;;;;;5064343;28;20072;-73
2022/03/01 08:52:04;;;;;;;23.10;15.07;;;4.70;99.90;;;;;;5058551;28;20114;-69
2022/03/01 08:54:29;;;;;;;24.35;15.93;;;4.70;99.90;;;;;;5037667;28;20442;-70
2022/03/01 08:56:55;;;;;;;23.58;15.32;;;4.80;99.90;;;;;;5060972;28;20055;-71
2022/03/01 08:59:22;;;;;;;21.92;13.85;;;4.90;99.90;;;;;;5074433;28;20135;-71
2022/03/01 09:01:47;;;;;;;26.75;15.77;;;5.00;99.90;;;;;;5054432;28;20475;-70
2022/03/01 09:04:13;;;;;;;24.10;16.42;;;5.10;99.90;;;;;;5071620;28;20135;-71
2022/03/01 09:06:38;;;;;;;24.77;16.40;;;5.20;99.90;;;;;;5041199;28;20088;-72
2022/03/01 09:09:04;;;;;;;20.92;15.50;;;5.30;99.90;;;;;;5037108;28;20045;-72
2022/03/01 09:11:30;;;;;;;22.08;15.10;;;5.40;99.90;;;;;;5055406;28;20084;-71
2022/03/01 09:13:55;;;;;;;20.45;13.80;;;5.40;99.90;;;;;;5053321;28;20375;-72
2022/03/01 09:16:21;;;;;;;22.27;14.80;;;5.50;99.90;;;;;;5073541;28;20045;-70
2022/03/01 09:18:47;;;;;;;21.80;14.52;;;5.60;99.90;;;;;;5074295;28;20083;-73
2022/03/01 09:21:13;;;;;;;19.77;14.30;;;5.80;99.90;;;;;;5074553;28;20048;-74
2022/03/01 09:23:39;;;;;;;20.92;14.13;;;5.90;99.90;;;;;;5065347;28;20041;-71
2022/03/01 09:26:04;;;;;;;21.98;15.32;;;6.00;99.90;;;;;;5036955;28;20094;-71
2022/03/01 09:28:30;;;;;;;20.58;13.93;;;6.10;99.90;;;;;;5054894;28;20127;-70
2022/03/01 09:30:55;;;;;;;20.10;14.57;;;6.30;99.90;;;;;;5053600;28;20051;-72
2022/03/01 09:33:21;;;;;;;21.55;14.50;;;6.40;99.90;;;;;;5056740;28;20049;-70
2022/03/01 09:35:47;;;;;;;21.05;14.85;;;6.50;99.90;;;;;;5074692;28;20048;-70
2022/03/01 09:38:13;;;;;;;22.80;14.10;;;6.60;99.90;;;;;;5057105;28;20429;-70
2022/03/01 09:40:38;;;;;;;25.15;14.85;;;6.60;99.90;;;;;;5078271;28;20393;-74
2022/03/01 09:43:04;;;;;;;23.15;13.88;;;6.70;99.90;;;;;;5061359;28;20091;-74
2022/03/01 09:45:31;;;;;;;22.40;14.13;;;6.70;99.90;;;;;;5078631;28;20080;-70
2022/03/01 09:47:57;;;;;;;22.17;14.55;;;6.70;99.90;;;;;;5078603;28;20047;-70
2022/03/01 09:50:27;;;;;;;20.52;14.98;;;6.80;99.90;;;;;;5061251;28;20052;-70
2022/03/01 09:52:59;;;;;;;21.02;14.18;;;6.90;99.90;;;;;;5061038;28;20063;-70
2022/03/01 09:55:25;;;;;;;22.17;14.32;;;6.90;99.90;;;;;;5060639;28;20468;-72
2022/03/01 09:57:51;;;;;;;20.80;14.18;;;7.00;99.90;;;;;;5060749;28;20044;-70
2022/03/01 10:00:17;;;;;;;19.95;14.30;;;7.00;99.90;;;;;;5078990;28;20105;-71
2022/03/01 10:02:44;;;;;;;19.63;13.80;;;7.00;99.90;;;;;;5077419;28;20048;-72
2022/03/01 10:05:12;;;;;;;21.83;14.05;;;7.00;99.90;;;;;;5044101;28;20044;-72
2022/03/01 10:07:43;;;;;;;24.60;15.10;;;7.00;99.90;;;;;;5079034;28;20040;-70
2022/03/01 10:10:16;;;;;;;21.02;14.88;;;6.90;99.90;;;;;;5060547;28;20062;-71
2022/03/01 10:12:44;;;;;;;26.02;13.80;;;6.90;99.90;;;;;;5078575;28;20167;-71
2022/03/01 10:15:13;;;;;;;19.88;13.50;;;6.90;99.90;;;;;;5077904;28;20059;-72
2022/03/01 10:17:39;;;;;;;22.95;14.07;;;7.00;99.90;;;;;;5078415;28;20047;-72
2022/03/01 10:20:11;;;;;;;20.08;14.20;;;7.00;99.90;;;;;;5078293;28;20348;-72
2022/03/01 10:22:38;;;;;;;19.42;13.50;;;7.10;99.90;;;;;;5077763;28;20037;-70
2022/03/01 10:25:08;;;;;;;17.88;13.60;;;7.10;99.90;;;;;;5078354;28;20368;-72
2022/03/01 10:27:34;;;;;;;21.90;14.20;;;7.20;99.90;;;;;;5077916;28;20037;-71
2022/03/01 10:30:01;;;;;;;20.60;13.57;;;7.30;99.90;;;;;;5077783;28;20123;-71
2022/03/01 10:32:27;;;;;;;19.38;13.23;;;7.30;99.90;;;;;;5077480;28;20037;-72
2022/03/01 10:35:07;;;;;;;21.13;14.30;;;7.30;99.90;;;;;;5059724;28;20048;-72
2022/03/01 10:37:38;;;;;;;19.20;13.32;;;7.30;99.90;;;;;;5057107;28;20102;-72
2022/03/01 10:40:17;;;;;;;20.35;14.10;;;7.30;99.90;;;;;;5077505;28;20558;-71
2022/03/01 10:42:43;;;;;;;20.10;13.52;;;7.40;99.90;;;;;;5042499;28;20353;-71
2022/03/01 10:45:09;;;;;;;18.90;13.60;;;7.50;99.90;;;;;;5077563;28;20438;-71
2022/03/01 10:47:37;;;;;;;17.55;12.85;;;7.60;99.90;;;;;;5059791;28;20206;-70
2022/03/01 10:50:06;;;;;;;20.88;14.93;;;7.70;99.90;;;;;;5077210;28;20110;-72
2022/03/01 10:52:39;;;;;;;22.58;14.10;;;7.80;99.90;;;;;;5077677;28;20503;-73
2022/03/01 10:55:05;;;;;;;25.27;14.85;;;7.90;99.90;;;;;;5077087;28;20391;-73
2022/03/01 10:57:31;;;;;;;20.10;13.88;;;8.10;99.90;;;;;;5074238;28;20040;-72
2022/03/01 10:59:57;;;;;;;19.13;14.40;;;8.20;99.90;;;;;;5077649;28;20089;-71
2022/03/01 11:02:23;;;;;;;20.35;13.50;;;8.40;99.90;;;;;;5059986;28;20050;-71
2022/03/01 11:04:50;;;;;;;22.00;14.30;;;8.50;99.90;;;;;;5060058;28;20040;-70
2022/03/01 11:07:17;;;;;;;22.38;13.77;;;8.60;99.90;;;;;;5077386;28;20045;-73
2022/03/01 11:09:45;;;;;;;18.63;13.38;;;8.80;99.90;;;;;;5059715;28;20044;-71
2022/03/01 11:12:11;;;;;;;23.83;13.77;;;8.90;99.90;;;;;;5059396;28;20051;-70
2022/03/01 11:14:42;;;;;;;19.27;13.98;;;9.10;99.90;;;;;;5077025;28;20055;-71
2022/03/01 11:17:19;;;;;;;21.23;14.57;;;9.20;99.90;;;;;;5077342;28;20428;-73
2022/03/01 11:19:59;;;;;;;22.42;14.35;;;9.30;99.90;;;;;;5042685;28;20045;-72
2022/03/01 11:22:41;;;;;;;19.40;13.40;;;9.40;99.90;;;;;;5076790;28;20053;-71
2022/03/01 11:25:14;;;;;;;21.05;14.45;;;9.40;99.90;;;;;;5076193;28;20048;-72
2022/03/01 11:27:44;;;;;;;18.07;13.43;;;9.40;99.90;;;;;;5059208;28;20052;-72
2022/03/01 11:30:11;;;;;;;22.27;14.52;;;9.50;99.90;;;;;;5076958;28;20360;-70
2022/03/01 11:32:39;;;;;;;22.20;14.52;;;9.50;99.90;;;;;;5059376;28;20124;-73
2022/03/01 11:35:05;;;;;;;20.73;15.13;;;9.60;99.90;;;;;;5076789;28;20048;-72
2022/03/01 11:37:31;;;;;;;19.23;14.65;;;9.60;99.90;;;;;;5076673;28;20051;-71
2022/03/01 11:40:02;;;;;;;17.75;13.60;;;9.70;99.90;;;;;;5076909;28;20048;-70
2022/03/01 11:42:32;;;;;;;19.45;13.82;;;9.80;99.90;;;;;;5077001;28;20131;-71
2022/03/01 11:45:09;;;;;;;19.73;14.75;;;9.80;99.90;;;;;;5076550;28;20056;-71
2022/03/01 11:47:34;;;;;;;22.15;14.13;;;9.80;99.90;;;;;;5058577;28;20078;-73
2022/03/01 11:50:15;;;;;;;19.27;13.98;;;9.80;99.90;;;;;;5076335;28;20052;-72
2022/03/01 11:52:57;;;;;;;19.33;13.77;;;9.80;99.90;;;;;;5058568;28;20059;-73
2022/03/01 11:55:30;;;;;;;22.60;14.98;;;9.80;99.90;;;;;;5075961;28;20094;-73
2022/03/01 11:57:56;;;;;;;21.70;14.13;;;9.70;99.90;;;;;;5076324;28;20044;-71
2022/03/01 12:00:26;;;;;;;21.45;14.45;;;9.70;99.90;;;;;;5076216;28;20048;-73
2022/03/01 12:02:52;;;;;;;20.33;13.85;;;9.80;99.90;;;;;;5075857;28;20361;-70
2022/03/01 12:05:25;;;;;;;20.55;14.68;;;9.70;99.90;;;;;;5058563;28;20049;-72
2022/03/01 12:07:52;;;;;;;19.63;14.93;;;9.80;99.90;;;;;;5058386;28;20127;-71
2022/03/01 12:10:25;;;;;;;19.45;13.98;;;9.80;99.90;;;;;;5057756;28;20040;-71
2022/03/01 12:12:55;;;;;;;20.58;14.75;;;9.80;99.90;;;;;;5057940;28;20102;-71
2022/03/01 12:15:29;;;;;;;20.10;14.00;;;9.80;99.90;;;;;;5075827;28;20060;-72
2022/03/01 12:17:55;;;;;;;;;;;9.70;99.90;;;;;;5075926;28;20088;-73
2022/03/01 12:20:22;;;;;;;25.58;14.80;;;9.70;99.90;;;;;;5075701;28;19928;-71
2022/03/01 12:22:58;;;;;;;19.42;14.60;;;9.60;99.90;;;;;;5057594;28;20119;-71
2022/03/01 12:25:25;;;;;;;20.40;14.68;;;9.60;99.90;;;;;;5041670;28;20127;-71
2022/03/01 12:27:52;;;;;;;22.50;14.23;;;9.60;99.90;;;;;;5074913;28;20074;-71
2022/03/01 12:30:23;;;;;;;17.45;13.30;;;9.50;99.90;;;;;;5076084;28;20342;-71
2022/03/01 12:32:50;;;;;;;19.23;14.77;;;9.50;99.90;;;;;;5075667;28;20349;-71
2022/03/01 12:35:16;;;;;;;21.15;15.27;;;9.60;99.90;;;;;;5057857;28;20442;-71